createdAt,value
2022-08-30T00:00:24.813Z,29.35
2022-08-30T00:01:32.330Z,29.33
2022-08-30T00:02:36.856Z,29.29
2022-08-30T00:03:41.869Z,29.25
2022-08-30T00:04:45.325Z,29.26
2022-08-30T00:05:47.754Z,29.26
2022-08-30T00:06:50.566Z,29.27
2022-08-30T00:07:52.926Z,29.29
2022-08-30T00:08:55.359Z,29.30
2022-08-30T00:09:57.721Z,29.32
2022-08-30T00:11:00.480Z,29.32
2022-08-30T00:12:03.633Z,29.32
2022-08-30T00:13:07.396Z,29.33
2022-08-30T00:14:09.637Z,29.33
2022-08-30T00:15:13.089Z,29.26
2022-08-30T00:16:17.042Z,29.31
2022-08-30T00:17:19.306Z,29.31
2022-08-30T00:18:21.852Z,29.30
2022-08-30T00:19:25.955Z,29.29
2022-08-30T00:20:31.743Z,29.28
2022-08-30T00:21:34.862Z,29.29
2022-08-30T00:22:37.492Z,29.26
2022-08-30T00:23:39.896Z,29.26
2022-08-30T00:24:42.185Z,29.26
2022-08-30T00:25:44.542Z,29.26
2022-08-30T00:26:47.090Z,29.25
2022-08-30T00:27:49.574Z,29.25
2022-08-30T00:28:51.930Z,29.23
2022-08-30T00:29:54.853Z,29.24
2022-08-30T00:30:58.227Z,29.24
2022-08-30T00:32:01.365Z,29.23
2022-08-30T00:33:04.121Z,29.21
2022-08-30T00:34:06.286Z,29.18
2022-08-30T00:35:09.273Z,29.18
2022-08-30T00:36:13.909Z,29.17
2022-08-30T00:37:16.312Z,29.17
2022-08-30T00:38:18.571Z,29.16
2022-08-30T00:39:21.142Z,29.16
2022-08-30T00:40:27.231Z,29.16
2022-08-30T00:41:28.553Z,29.17
2022-08-30T00:42:31.696Z,29.17
2022-08-30T00:43:34.264Z,29.16
2022-08-30T00:44:40.278Z,29.14
2022-08-30T00:45:42.497Z,29.13
2022-08-30T00:46:45.156Z,29.16
2022-08-30T00:47:47.437Z,29.16
2022-08-30T00:48:49.900Z,29.16
2022-08-30T00:49:55.390Z,29.18
2022-08-30T00:51:02.843Z,29.20
2022-08-30T00:52:05.715Z,29.22
2022-08-30T00:53:17.617Z,29.22
2022-08-30T00:54:20.541Z,29.21
2022-08-30T00:55:24.073Z,29.21
2022-08-30T00:56:28.383Z,29.19
2022-08-30T00:57:31.011Z,29.17
2022-08-30T00:59:48.340Z,29.16
2022-08-30T01:00:51.846Z,29.06
2022-08-30T01:01:54.733Z,29.07
2022-08-30T01:02:57.291Z,29.09
2022-08-30T01:03:59.866Z,29.10
2022-08-30T01:05:02.544Z,29.07
2022-08-30T01:06:05.985Z,29.05
2022-08-30T01:07:14.744Z,29.06
2022-08-30T01:08:18.079Z,29.08
2022-08-30T01:09:20.585Z,29.07
2022-08-30T01:10:24.696Z,29.08
2022-08-30T01:11:26.959Z,29.08
2022-08-30T01:12:29.555Z,29.06
2022-08-30T01:13:33.004Z,29.06
2022-08-30T01:14:35.306Z,29.06
2022-08-30T01:15:37.627Z,29.08
2022-08-30T01:16:41.247Z,29.09
2022-08-30T01:17:43.782Z,29.09
2022-08-30T01:18:46.509Z,29.08
2022-08-30T01:21:29.837Z,29.18
2022-08-30T01:22:43.164Z,29.08
2022-08-30T01:23:48.823Z,29.08
2022-08-30T01:24:51.738Z,29.06
2022-08-30T01:25:54.172Z,29.03
2022-08-30T01:26:57.432Z,29.00
2022-08-30T01:28:02.877Z,28.98
2022-08-30T01:29:07.996Z,28.96
2022-08-30T01:30:12.492Z,28.95
2022-08-30T01:31:15.055Z,28.93
2022-08-30T01:32:21.175Z,28.93
2022-08-30T01:33:22.906Z,28.94
2022-08-30T01:34:25.183Z,28.95
2022-08-30T01:35:29.642Z,28.94
2022-08-30T01:36:33.458Z,28.91
2022-08-30T01:37:35.739Z,28.89
2022-08-30T01:38:41.368Z,28.89
2022-08-30T01:39:45.221Z,28.91
2022-08-30T01:40:48.607Z,28.91
2022-08-30T01:41:51.028Z,28.90
2022-08-30T01:42:53.289Z,28.91
2022-08-30T01:43:57.237Z,28.91
2022-08-30T01:45:00.480Z,28.89
2022-08-30T01:46:03.196Z,28.88
2022-08-30T01:47:05.600Z,28.88
2022-08-30T01:48:08.848Z,28.84
2022-08-30T01:49:13.566Z,28.76
2022-08-30T01:50:16.523Z,28.76
2022-08-30T01:51:18.866Z,28.78
2022-08-30T01:52:22.511Z,28.79
2022-08-30T01:53:24.708Z,28.81
2022-08-30T01:54:27.275Z,28.83
2022-08-30T01:55:31.503Z,28.78
2022-08-30T01:56:35.767Z,28.75
2022-08-30T01:57:38.001Z,28.73
2022-08-30T01:58:40.683Z,28.73
2022-08-30T01:59:44.266Z,28.75
2022-08-30T02:00:46.739Z,28.77
2022-08-30T02:01:49.100Z,28.77
2022-08-30T02:02:51.428Z,28.78
2022-08-30T02:03:54.725Z,28.81
2022-08-30T02:04:56.977Z,28.83
2022-08-30T02:06:05.221Z,28.84
2022-08-30T02:07:07.641Z,28.83
2022-08-30T02:08:09.865Z,28.84
2022-08-30T02:09:12.216Z,28.84
2022-08-30T02:10:15.766Z,28.86
2022-08-30T02:11:18.080Z,28.87
2022-08-30T02:12:20.248Z,28.86
2022-08-30T02:13:22.618Z,28.85
2022-08-30T02:14:24.849Z,28.86
2022-08-30T02:15:27.213Z,28.87
2022-08-30T02:16:30.271Z,28.87
2022-08-30T02:17:32.852Z,28.90
2022-08-30T02:18:35.420Z,28.89
2022-08-30T02:19:38.100Z,28.89
2022-08-30T02:20:40.759Z,28.89
2022-08-30T02:21:43.135Z,28.85
2022-08-30T02:22:49.140Z,28.79
2022-08-30T02:23:50.317Z,28.73
2022-08-30T02:24:52.766Z,28.66
2022-08-30T02:25:55.018Z,28.61
2022-08-30T02:26:57.513Z,28.60
2022-08-30T02:27:59.881Z,28.60
2022-08-30T02:29:03.798Z,28.61
2022-08-30T02:30:08.332Z,28.64
2022-08-30T02:31:10.938Z,28.65
2022-08-30T02:32:13.236Z,28.66
2022-08-30T02:33:15.497Z,28.64
2022-08-30T02:34:17.851Z,28.65
2022-08-30T02:35:20.114Z,28.64
2022-08-30T02:36:24.384Z,28.65
2022-08-30T02:37:26.980Z,28.67
2022-08-30T02:38:29.238Z,28.60
2022-08-30T02:39:31.693Z,28.58
2022-08-30T02:40:34.337Z,28.60
2022-08-30T02:41:37.800Z,28.59
2022-08-30T02:42:40.550Z,28.61
2022-08-30T02:43:42.719Z,28.65
2022-08-30T02:44:44.988Z,28.66
2022-08-30T02:45:47.156Z,28.68
2022-08-30T02:46:50.714Z,28.68
2022-08-30T02:47:53.033Z,28.68
2022-08-30T02:48:55.288Z,28.68
2022-08-30T02:49:57.461Z,28.69
2022-08-30T02:51:05.919Z,28.72
2022-08-30T02:52:10.133Z,28.74
2022-08-30T02:53:16.119Z,28.72
2022-08-30T02:54:18.301Z,28.71
2022-08-30T02:55:20.463Z,28.71
2022-08-30T02:56:23.751Z,28.72
2022-08-30T02:57:25.887Z,28.72
2022-08-30T02:58:29.104Z,28.67
2022-08-30T02:59:34.212Z,28.55
2022-08-30T03:00:37.266Z,28.41
2022-08-30T03:01:40.688Z,28.32
2022-08-30T03:02:43.911Z,28.20
2022-08-30T03:03:46.395Z,28.09
2022-08-30T03:04:49.791Z,27.98
2022-08-30T03:05:52.110Z,27.84
2022-08-30T03:06:54.484Z,27.72
2022-08-30T03:07:56.909Z,27.59
2022-08-30T03:08:59.172Z,27.48
2022-08-30T03:10:01.431Z,27.42
2022-08-30T03:11:03.972Z,27.35
2022-08-30T03:12:06.593Z,27.25
2022-08-30T03:13:08.904Z,26.97
2022-08-30T03:14:11.374Z,26.97
2022-08-30T03:15:13.719Z,26.80
2022-08-30T03:16:18.015Z,26.72
2022-08-30T03:17:20.315Z,26.73
2022-08-30T03:18:22.577Z,26.70
2022-08-30T03:19:24.878Z,26.60
2022-08-30T03:20:27.329Z,26.60
2022-08-30T03:21:29.485Z,26.60
2022-08-30T03:22:32.337Z,26.64
2022-08-30T03:23:34.878Z,26.69
2022-08-30T03:24:37.235Z,26.71
2022-08-30T03:25:39.502Z,26.76
2022-08-30T03:26:46.240Z,26.71
2022-08-30T03:27:47.799Z,26.63
2022-08-30T03:28:50.140Z,26.53
2022-08-30T03:29:52.521Z,26.50
2022-08-30T03:30:54.819Z,26.43
2022-08-30T03:31:57.200Z,26.39
2022-08-30T03:33:00.169Z,26.23
2022-08-30T03:34:03.352Z,26.13
2022-08-30T03:35:06.738Z,26.08
2022-08-30T03:36:09.998Z,26.06
2022-08-30T03:37:12.157Z,26.13
2022-08-30T03:38:14.702Z,26.11
2022-08-30T03:39:16.866Z,26.17
2022-08-30T03:40:21.105Z,26.30
2022-08-30T03:41:25.768Z,26.45
2022-08-30T03:42:28.082Z,26.58
2022-08-30T03:43:32.112Z,26.71
2022-08-30T03:44:34.927Z,26.80
2022-08-30T03:45:38.725Z,26.90
2022-08-30T03:46:41.493Z,26.97
2022-08-30T03:47:43.943Z,27.05
2022-08-30T03:48:46.211Z,27.08
2022-08-30T03:49:48.596Z,27.14
2022-08-30T03:50:52.391Z,27.18
2022-08-30T03:51:54.631Z,27.21
2022-08-30T03:52:57.486Z,27.25
2022-08-30T03:54:00.206Z,27.29
2022-08-30T03:55:03.140Z,27.39
2022-08-30T03:56:05.775Z,27.39
2022-08-30T03:57:09.024Z,27.44
2022-08-30T03:58:13.114Z,27.48
2022-08-30T03:59:17.306Z,27.53
2022-08-30T04:00:20.743Z,27.59
2022-08-30T04:01:23.046Z,27.65
2022-08-30T04:02:25.251Z,27.68
2022-08-30T04:03:27.903Z,27.72
2022-08-30T04:04:30.235Z,27.78
2022-08-30T04:05:32.500Z,27.83
2022-08-30T04:06:35.883Z,27.85
2022-08-30T04:07:38.298Z,27.85
2022-08-30T04:08:41.146Z,27.84
2022-08-30T04:09:44.751Z,27.86
2022-08-30T04:10:47.549Z,27.91
2022-08-30T04:11:50.925Z,27.96
2022-08-30T04:12:53.242Z,28.00
2022-08-30T04:13:55.397Z,28.01
2022-08-30T04:14:59.416Z,28.03
2022-08-30T04:16:02.173Z,28.07
2022-08-30T04:17:04.625Z,28.09
2022-08-30T04:18:07.362Z,28.13
2022-08-30T04:19:09.678Z,28.15
2022-08-30T04:20:13.241Z,28.17
2022-08-30T04:21:15.549Z,28.19
2022-08-30T04:22:17.929Z,28.22
2022-08-30T04:23:20.265Z,28.25
2022-08-30T04:24:22.706Z,28.26
2022-08-30T04:25:24.873Z,28.24
2022-08-30T04:26:29.269Z,28.23
2022-08-30T04:27:31.482Z,28.23
2022-08-30T04:28:34.645Z,28.23
2022-08-30T04:29:37.037Z,28.25
2022-08-30T04:30:41.900Z,28.27
2022-08-30T04:31:45.884Z,28.30
2022-08-30T04:32:48.601Z,28.33
2022-08-30T04:33:50.885Z,28.38
2022-08-30T04:34:57.212Z,28.38
2022-08-30T04:36:01.128Z,28.40
2022-08-30T04:37:04.416Z,28.41
2022-08-30T04:38:06.613Z,28.41
2022-08-30T04:39:08.857Z,28.36
2022-08-30T04:40:11.864Z,28.33
2022-08-30T04:41:18.666Z,28.33
2022-08-30T04:42:20.891Z,28.32
2022-08-30T04:43:23.261Z,28.28
2022-08-30T04:44:25.391Z,28.22
2022-08-30T04:45:27.810Z,28.17
2022-08-30T04:46:30.647Z,28.12
2022-08-30T04:47:33.853Z,28.06
2022-08-30T04:49:49.571Z,28.16
2022-08-30T04:50:51.859Z,28.09
2022-08-30T04:51:54.102Z,28.14
2022-08-30T04:52:56.990Z,28.16
2022-08-30T04:53:59.364Z,28.15
2022-08-30T04:55:01.730Z,28.18
2022-08-30T04:57:22.181Z,28.36
2022-08-30T04:58:24.615Z,28.30
2022-08-30T04:59:27.140Z,28.33
2022-08-30T05:00:30.781Z,28.32
2022-08-30T05:01:44.754Z,28.32
2022-08-30T05:02:38.842Z,28.32
2022-08-30T05:03:42.044Z,28.32
2022-08-30T05:04:44.373Z,28.35
2022-08-30T05:05:49.320Z,28.37
2022-08-30T05:06:51.627Z,28.41
2022-08-30T05:07:54.092Z,28.43
2022-08-30T05:08:57.336Z,28.44
2022-08-30T05:10:00.003Z,28.42
2022-08-30T05:11:03.680Z,28.36
2022-08-30T05:12:06.797Z,28.33
2022-08-30T05:13:09.380Z,28.30
2022-08-30T05:14:11.658Z,28.29
2022-08-30T05:15:14.046Z,28.30
2022-08-30T05:16:18.243Z,28.32
2022-08-30T05:17:21.335Z,28.31
2022-08-30T05:18:24.835Z,28.31
2022-08-30T05:19:27.569Z,28.30
2022-08-30T05:20:29.966Z,28.28
2022-08-30T05:21:32.701Z,28.29
2022-08-30T05:23:49.734Z,28.41
2022-08-30T05:24:51.973Z,28.26
2022-08-30T05:25:54.132Z,28.26
2022-08-30T05:26:56.525Z,28.29
2022-08-30T05:27:58.859Z,28.31
2022-08-30T05:29:02.280Z,28.32
2022-08-30T05:30:05.675Z,28.30
2022-08-30T05:31:26.203Z,28.31
2022-08-30T05:32:29.139Z,28.34
2022-08-30T05:33:32.332Z,28.36
2022-08-30T05:34:36.412Z,28.35
2022-08-30T05:35:38.585Z,28.32
2022-08-30T05:36:42.161Z,28.30
2022-08-30T05:37:44.631Z,28.32
2022-08-30T05:38:47.901Z,28.34
2022-08-30T05:39:51.142Z,28.36
2022-08-30T05:40:54.740Z,28.35
2022-08-30T05:43:10.735Z,28.50
2022-08-30T05:44:12.990Z,28.41
2022-08-30T05:45:16.200Z,28.44
2022-08-30T05:46:20.135Z,28.48
2022-08-30T05:47:23.630Z,28.51
2022-08-30T05:48:26.988Z,28.51
2022-08-30T05:49:29.213Z,28.48
2022-08-30T05:50:34.097Z,28.42
2022-08-30T05:51:37.006Z,28.38
2022-08-30T05:52:41.605Z,28.40
2022-08-30T05:53:44.322Z,28.42
2022-08-30T05:54:52.305Z,28.41
2022-08-30T05:55:55.061Z,28.39
2022-08-30T05:56:57.658Z,28.40
2022-08-30T05:57:59.885Z,28.42
2022-08-30T05:59:04.847Z,28.44
2022-08-30T06:00:10.775Z,28.44
2022-08-30T06:01:28.968Z,28.43
2022-08-30T06:02:31.488Z,28.47
2022-08-30T06:03:33.741Z,28.48
2022-08-30T06:04:35.944Z,28.50
2022-08-30T06:05:38.270Z,28.50
2022-08-30T06:06:42.268Z,28.49
2022-08-30T06:07:44.637Z,28.50
2022-08-30T06:08:47.358Z,28.50
2022-08-30T06:09:49.818Z,28.51
2022-08-30T06:10:52.487Z,28.44
2022-08-30T06:11:55.628Z,28.44
2022-08-30T06:12:59.291Z,28.50
2022-08-30T06:14:02.000Z,28.49
2022-08-30T06:15:05.472Z,28.48
2022-08-30T06:16:10.910Z,28.48
2022-08-30T06:17:13.391Z,28.51
2022-08-30T06:18:15.792Z,28.53
2022-08-30T06:19:19.002Z,28.57
2022-08-30T06:20:24.133Z,28.58
2022-08-30T06:21:29.289Z,28.58
2022-08-30T06:22:32.641Z,28.58
2022-08-30T06:23:35.507Z,28.56
2022-08-30T06:24:56.265Z,28.51
2022-08-30T06:25:44.032Z,28.48
2022-08-30T06:26:47.721Z,28.43
2022-08-30T06:27:55.902Z,28.36
2022-08-30T06:28:56.757Z,28.31
2022-08-30T06:29:59.672Z,28.29
2022-08-30T06:31:08.224Z,28.27
2022-08-30T06:32:10.668Z,28.25
2022-08-30T06:33:13.981Z,28.27
2022-08-30T06:34:16.838Z,28.31
2022-08-30T06:35:19.100Z,28.36
2022-08-30T06:36:22.913Z,28.40
2022-08-30T06:37:29.967Z,28.42
2022-08-30T06:38:30.402Z,28.40
2022-08-30T06:39:32.598Z,28.37
2022-08-30T06:40:35.885Z,28.35
2022-08-30T06:41:39.391Z,28.34
2022-08-30T06:42:43.576Z,28.36
2022-08-30T06:43:49.070Z,28.39
2022-08-30T06:44:51.476Z,28.41
2022-08-30T06:45:54.155Z,28.39
2022-08-30T06:46:57.754Z,28.34
2022-08-30T06:48:01.070Z,28.35
2022-08-30T06:49:04.086Z,28.35
2022-08-30T06:50:07.751Z,28.32
2022-08-30T06:51:14.008Z,28.28
2022-08-30T06:52:17.938Z,28.25
2022-08-30T06:53:22.375Z,28.23
2022-08-30T06:54:25.003Z,28.15
2022-08-30T06:55:27.714Z,28.15
2022-08-30T06:56:31.357Z,28.18
2022-08-30T06:57:33.703Z,28.19
2022-08-30T06:58:36.880Z,28.19
2022-08-30T06:59:39.496Z,28.20
2022-08-30T07:00:44.158Z,28.24
2022-08-30T07:01:47.418Z,28.23
2022-08-30T07:02:49.793Z,28.23
2022-08-30T07:03:52.351Z,28.24
2022-08-30T07:04:55.008Z,28.28
2022-08-30T07:05:58.546Z,28.26
2022-08-30T07:07:01.374Z,28.26
2022-08-30T07:08:03.538Z,28.26
2022-08-30T07:09:06.854Z,28.24
2022-08-30T07:10:10.380Z,28.23
2022-08-30T07:11:12.701Z,28.23
2022-08-30T07:12:14.952Z,28.26
2022-08-30T07:13:18.246Z,28.29
2022-08-30T07:14:20.761Z,28.30
2022-08-30T07:15:24.757Z,28.32
2022-08-30T07:16:28.051Z,28.35
2022-08-30T07:17:34.013Z,28.36
2022-08-30T07:18:35.276Z,28.34
2022-08-30T07:19:37.590Z,28.31
2022-08-30T07:20:40.866Z,28.31
2022-08-30T07:21:43.492Z,28.30
2022-08-30T07:22:47.728Z,28.33
2022-08-30T07:23:53.279Z,28.34
2022-08-30T07:24:54.944Z,28.32
2022-08-30T07:25:57.376Z,28.30
2022-08-30T07:26:59.749Z,28.33
2022-08-30T07:28:02.637Z,28.35
2022-08-30T07:29:04.980Z,28.36
2022-08-30T07:30:08.645Z,28.35
2022-08-30T07:31:12.776Z,28.32
2022-08-30T07:32:15.273Z,28.31
2022-08-30T07:33:17.533Z,28.34
2022-08-30T07:34:21.463Z,28.35
2022-08-30T07:35:24.295Z,28.34
2022-08-30T07:36:27.013Z,28.33
2022-08-30T07:37:30.217Z,28.33
2022-08-30T07:38:32.603Z,28.33
2022-08-30T07:39:39.751Z,28.31
2022-08-30T07:40:40.467Z,28.25
2022-08-30T07:41:43.926Z,28.21
2022-08-30T07:42:50.249Z,28.19
2022-08-30T07:43:52.837Z,28.18
2022-08-30T07:44:56.877Z,28.19
2022-08-30T07:47:18.157Z,28.26
2022-08-30T07:48:21.714Z,28.14
2022-08-30T07:49:24.632Z,28.16
2022-08-30T07:50:27.740Z,28.18
2022-08-30T07:51:31.090Z,28.17
2022-08-30T07:52:34.263Z,28.15
2022-08-30T07:53:36.782Z,28.11
2022-08-30T07:54:39.860Z,28.11
2022-08-30T07:55:43.001Z,28.11
2022-08-30T07:56:45.477Z,28.14
2022-08-30T07:57:48.093Z,28.14
2022-08-30T07:58:51.585Z,28.13
2022-08-30T07:59:53.997Z,28.13
2022-08-30T08:00:57.141Z,28.13
2022-08-30T08:02:01.231Z,28.12
2022-08-30T08:03:08.417Z,28.10
2022-08-30T08:04:10.770Z,28.09
2022-08-30T08:05:17.609Z,28.06
2022-08-30T08:06:20.279Z,28.06
2022-08-30T08:07:22.599Z,28.06
2022-08-30T08:08:25.078Z,28.07
2022-08-30T08:09:30.110Z,28.11
2022-08-30T08:10:35.902Z,28.11
2022-08-30T08:11:39.129Z,28.09
2022-08-30T08:12:41.311Z,28.08
2022-08-30T08:13:48.996Z,28.08
2022-08-30T08:14:50.873Z,28.09
2022-08-30T08:15:54.612Z,28.11
2022-08-30T08:16:57.072Z,28.12
2022-08-30T08:18:00.011Z,28.11
2022-08-30T08:19:03.723Z,28.13
2022-08-30T08:20:07.292Z,28.17
2022-08-30T08:21:09.798Z,28.23
2022-08-30T08:22:27.282Z,28.29
2022-08-30T08:23:16.242Z,28.32
2022-08-30T08:24:19.456Z,28.36
2022-08-30T08:25:21.874Z,28.39
2022-08-30T08:26:24.496Z,28.42
2022-08-30T08:27:26.947Z,28.42
2022-08-30T08:28:31.488Z,28.43
2022-08-30T08:29:33.873Z,28.42
2022-08-30T08:30:38.271Z,28.42
2022-08-30T08:31:40.674Z,28.46
2022-08-30T08:32:43.579Z,28.47
2022-08-30T08:33:46.127Z,28.47
2022-08-30T08:34:48.409Z,28.47
2022-08-30T08:35:51.119Z,28.44
2022-08-30T08:36:54.492Z,28.42
2022-08-30T08:37:57.175Z,28.44
2022-08-30T08:38:59.973Z,28.45
2022-08-30T08:40:03.507Z,28.46
2022-08-30T08:41:26.679Z,28.44
2022-08-30T08:42:47.831Z,28.45
2022-08-30T08:43:50.123Z,28.49
2022-08-30T08:45:11.249Z,28.50
2022-08-30T08:46:26.674Z,28.50
2022-08-30T08:48:07.432Z,28.51
2022-08-30T08:49:09.826Z,28.47
2022-08-30T08:50:17.452Z,28.44
2022-08-30T08:51:23.847Z,28.42
2022-08-30T08:52:33.256Z,28.41
2022-08-30T08:53:45.514Z,28.40
2022-08-30T08:56:05.211Z,28.51
2022-08-30T08:57:10.293Z,28.42
2022-08-30T08:58:16.703Z,28.43
2022-08-30T08:59:19.629Z,28.44
2022-08-30T09:00:23.029Z,28.43
2022-08-30T09:01:29.422Z,28.46
2022-08-30T09:03:52.940Z,28.59
2022-08-30T09:04:57.624Z,28.49
2022-08-30T09:06:01.878Z,28.50
2022-08-30T09:07:07.100Z,28.51
2022-08-30T09:08:11.978Z,28.51
2022-08-30T09:09:18.008Z,28.50
2022-08-30T09:10:40.483Z,28.49
2022-08-30T09:11:28.291Z,28.47
2022-08-30T09:12:30.810Z,28.45
2022-08-30T09:13:34.139Z,28.41
2022-08-30T09:14:44.277Z,28.43
2022-08-30T09:15:44.011Z,28.44
2022-08-30T09:17:02.948Z,28.46
2022-08-30T09:18:06.795Z,28.49
2022-08-30T09:19:12.124Z,28.52
2022-08-30T09:20:36.540Z,28.55
2022-08-30T09:21:38.998Z,28.56
2022-08-30T09:22:41.292Z,28.58
2022-08-30T09:25:07.626Z,28.72
2022-08-30T09:26:12.032Z,28.61
2022-08-30T09:27:23.835Z,28.62
2022-08-30T09:28:29.348Z,28.63
2022-08-30T09:29:31.655Z,28.65
2022-08-30T09:30:34.766Z,28.65
2022-08-30T09:31:52.953Z,28.66
2022-08-30T09:32:57.719Z,28.67
2022-08-30T09:34:01.541Z,28.68
2022-08-30T09:35:15.394Z,28.69
2022-08-30T09:36:27.679Z,28.68
2022-08-30T09:37:36.644Z,28.68
2022-08-30T09:38:39.035Z,28.66
2022-08-30T09:39:41.819Z,28.64
2022-08-30T09:40:46.527Z,28.64
2022-08-30T09:41:49.428Z,28.65
2022-08-30T09:43:03.938Z,28.64
2022-08-30T09:44:19.391Z,28.64
2022-08-30T09:45:26.579Z,28.63
2022-08-30T09:46:30.660Z,28.61
2022-08-30T09:47:33.449Z,28.60
2022-08-30T09:48:38.962Z,28.58
2022-08-30T09:49:42.450Z,28.55
2022-08-30T09:50:45.441Z,28.57
2022-08-30T09:51:54.320Z,28.57
2022-08-30T09:53:05.188Z,28.56
2022-08-30T09:54:26.072Z,28.56
2022-08-30T09:55:51.623Z,28.56
2022-08-30T09:57:16.975Z,28.59
2022-08-30T09:58:29.951Z,28.59
2022-08-30T10:01:23.931Z,28.69
2022-08-30T10:02:39.883Z,28.57
2022-08-30T10:03:54.953Z,28.57
2022-08-30T10:05:19.059Z,28.57
2022-08-30T10:07:47.880Z,28.69
2022-08-30T10:09:04.758Z,28.56
2022-08-30T10:10:17.051Z,28.52
2022-08-30T10:11:38.414Z,28.48
2022-08-30T10:15:46.688Z,28.48
2022-08-30T10:16:59.639Z,28.36
2022-08-30T10:18:29.085Z,28.33
2022-08-30T10:21:15.639Z,28.42
2022-08-30T10:23:38.393Z,28.39
2022-08-30T10:24:46.308Z,28.30
2022-08-30T10:25:54.786Z,28.28
2022-08-30T10:27:05.257Z,28.27
2022-08-30T10:28:17.867Z,28.28
2022-08-30T10:29:25.020Z,28.28
2022-08-30T10:30:45.472Z,28.27
2022-08-30T10:31:57.505Z,28.29
2022-08-30T10:34:44.900Z,28.39
2022-08-30T10:35:58.699Z,28.29
2022-08-30T10:38:19.525Z,28.39
2022-08-30T10:39:24.123Z,28.31
2022-08-30T10:40:30.284Z,28.30
2022-08-30T10:41:42.512Z,28.30
2022-08-30T10:42:44.825Z,28.31
2022-08-30T10:44:23.479Z,28.30
2022-08-30T10:45:32.521Z,28.32
2022-08-30T10:46:50.001Z,28.32
2022-08-30T10:47:56.272Z,28.33
2022-08-30T10:50:24.708Z,28.44
2022-08-30T10:51:53.237Z,28.33
2022-08-30T10:53:35.499Z,28.31
2022-08-30T10:54:43.566Z,28.31
2022-08-30T10:55:55.699Z,28.31
2022-08-30T10:57:00.116Z,28.31
2022-08-30T10:58:04.130Z,28.29
2022-08-30T10:59:07.466Z,28.29
2022-08-30T11:01:49.987Z,28.40
2022-08-30T11:03:15.874Z,28.31
2022-08-30T11:04:32.264Z,28.33
2022-08-30T11:06:05.541Z,28.34
2022-08-30T11:07:29.831Z,28.34
2022-08-30T11:08:54.359Z,28.34
2022-08-30T11:10:24.129Z,28.34
2022-08-30T11:11:34.571Z,28.34
2022-08-30T11:12:57.000Z,28.34
2022-08-30T11:14:05.423Z,28.34
2022-08-30T11:15:22.960Z,28.34
2022-08-30T11:16:44.224Z,28.34
2022-08-30T11:17:59.437Z,28.34
2022-08-30T11:19:02.043Z,28.34
2022-08-30T11:20:05.633Z,28.34
2022-08-30T11:21:32.272Z,28.35
2022-08-30T11:22:39.077Z,28.36
2022-08-30T11:23:40.737Z,28.36
2022-08-30T11:25:09.778Z,28.37
2022-08-30T11:26:12.150Z,28.35
2022-08-30T11:27:34.144Z,28.38
2022-08-30T11:28:40.521Z,28.37
2022-08-30T11:29:44.319Z,28.38
2022-08-30T11:30:48.281Z,28.38
2022-08-30T11:31:51.117Z,28.39
2022-08-30T11:33:09.697Z,28.40
2022-08-30T11:34:12.238Z,28.41
2022-08-30T11:35:18.266Z,28.41
2022-08-30T11:36:37.313Z,28.43
2022-08-30T11:37:38.425Z,28.43
2022-08-30T11:38:44.588Z,28.46
2022-08-30T11:39:50.646Z,28.47
2022-08-30T11:40:59.867Z,28.48
2022-08-30T11:42:30.205Z,28.49
2022-08-30T11:43:39.484Z,28.48
2022-08-30T11:44:42.518Z,28.49
2022-08-30T11:45:46.085Z,28.50
2022-08-30T11:46:53.517Z,28.50
2022-08-30T11:47:59.732Z,28.51
2022-08-30T11:49:16.324Z,28.52
2022-08-30T11:50:25.203Z,28.52
2022-08-30T11:51:43.748Z,28.50
2022-08-30T11:52:52.258Z,28.51
2022-08-30T11:55:19.907Z,28.62
2022-08-30T11:56:29.471Z,28.51
2022-08-30T11:57:39.337Z,28.52
2022-08-30T11:58:48.299Z,28.52
2022-08-30T12:00:03.617Z,28.51
2022-08-30T12:01:50.383Z,28.51
2022-08-30T12:02:55.606Z,28.52
2022-08-30T12:04:15.223Z,28.53
2022-08-30T12:06:59.415Z,28.64
2022-08-30T12:08:02.786Z,28.52
2022-08-30T12:09:08.394Z,28.52
2022-08-30T12:10:14.676Z,28.51
2022-08-30T12:11:20.706Z,28.52
2022-08-30T12:12:39.657Z,28.53
2022-08-30T12:13:46.926Z,28.53
2022-08-30T12:14:53.890Z,28.54
2022-08-30T12:15:58.093Z,28.55
2022-08-30T12:17:01.718Z,28.55
2022-08-30T12:18:04.605Z,28.56
2022-08-30T12:19:18.337Z,28.57
2022-08-30T12:20:26.986Z,28.57
2022-08-30T12:21:43.975Z,28.58
2022-08-30T12:22:39.346Z,28.58
2022-08-30T12:23:54.030Z,28.59
2022-08-30T12:24:56.972Z,28.59
2022-08-30T12:26:15.925Z,28.61
2022-08-30T12:27:32.885Z,28.63
2022-08-30T12:28:34.603Z,28.62
2022-08-30T12:29:36.956Z,28.63
2022-08-30T12:30:40.574Z,28.64
2022-08-30T12:31:58.580Z,28.64
2022-08-30T12:33:02.397Z,28.65
2022-08-30T12:34:06.284Z,28.66
2022-08-30T12:35:12.952Z,28.65
2022-08-30T12:36:36.330Z,28.65
2022-08-30T12:37:38.847Z,28.64
2022-08-30T12:38:43.157Z,28.56
2022-08-30T12:39:45.837Z,28.56
2022-08-30T12:40:55.256Z,28.67
2022-08-30T12:42:20.275Z,28.68
2022-08-30T12:43:26.751Z,28.68
2022-08-30T12:44:32.077Z,28.69
2022-08-30T12:45:42.085Z,28.69
2022-08-30T12:46:47.237Z,28.71
2022-08-30T12:47:58.680Z,28.70
2022-08-30T12:49:01.046Z,28.72
2022-08-30T12:50:07.214Z,28.71
2022-08-30T12:51:26.941Z,28.71
2022-08-30T12:52:35.297Z,28.71
2022-08-30T12:53:40.073Z,28.70
2022-08-30T12:54:43.366Z,28.72
2022-08-30T12:56:01.194Z,28.71
2022-08-30T12:57:34.936Z,28.70
2022-08-30T12:58:10.076Z,28.72
2022-08-30T12:59:33.491Z,28.71
2022-08-30T13:00:38.572Z,28.73
2022-08-30T13:01:40.891Z,28.72
2022-08-30T13:02:46.823Z,28.72
2022-08-30T13:03:59.941Z,28.72
2022-08-30T13:05:06.050Z,28.71
2022-08-30T13:06:08.868Z,28.70
2022-08-30T13:07:11.409Z,28.70
2022-08-30T13:08:22.407Z,28.71
2022-08-30T13:09:28.661Z,28.71
2022-08-30T13:10:34.405Z,28.72
2022-08-30T13:11:37.894Z,28.71
2022-08-30T13:12:40.187Z,28.73
2022-08-30T13:15:19.095Z,28.84
2022-08-30T13:16:26.165Z,28.73
2022-08-30T13:17:28.898Z,28.75
2022-08-30T13:18:32.257Z,28.76
2022-08-30T13:19:40.737Z,28.76
2022-08-30T13:20:43.441Z,28.77
2022-08-30T13:21:48.917Z,28.77
2022-08-30T13:23:05.767Z,28.77
2022-08-30T13:24:08.982Z,28.77
2022-08-30T13:25:12.302Z,28.79
2022-08-30T13:26:20.453Z,28.79
2022-08-30T13:27:21.067Z,28.79
2022-08-30T13:28:25.364Z,28.79
2022-08-30T13:29:27.919Z,28.75
2022-08-30T13:30:31.285Z,28.75
2022-08-30T13:31:33.681Z,28.80
2022-08-30T13:32:38.816Z,28.81
2022-08-30T13:33:40.391Z,28.81
2022-08-30T13:34:43.048Z,28.83
2022-08-30T13:35:45.867Z,28.84
2022-08-30T13:36:56.401Z,28.83
2022-08-30T13:38:00.037Z,28.84
2022-08-30T13:39:02.813Z,28.85
2022-08-30T13:40:08.274Z,28.88
2022-08-30T13:41:12.281Z,28.88
2022-08-30T13:43:19.079Z,28.89
2022-08-30T13:44:23.050Z,28.89
2022-08-30T13:45:41.462Z,28.90
2022-08-30T13:46:31.136Z,28.90
2022-08-30T13:47:33.587Z,28.92
2022-08-30T13:48:38.642Z,28.92
2022-08-30T13:49:43.917Z,28.93
2022-08-30T13:50:47.258Z,28.93
2022-08-30T13:52:09.472Z,28.93
2022-08-30T13:52:54.098Z,28.94
2022-08-30T13:53:56.386Z,28.95
2022-08-30T13:54:59.948Z,28.97
2022-08-30T13:56:04.583Z,28.97
2022-08-30T13:57:06.762Z,28.98
2022-08-30T13:58:09.656Z,28.99
2022-08-30T13:59:14.415Z,28.99
2022-08-30T14:00:18.383Z,28.99
2022-08-30T14:01:22.086Z,28.99
2022-08-30T14:02:25.033Z,29.00
2022-08-30T14:03:28.169Z,28.99
2022-08-30T14:04:31.272Z,29.00
2022-08-30T14:06:04.710Z,29.00
2022-08-30T14:07:13.598Z,29.01
2022-08-30T14:07:45.015Z,29.01
2022-08-30T14:08:48.729Z,29.01
2022-08-30T14:09:53.244Z,29.02
2022-08-30T14:10:56.753Z,29.02
2022-08-30T14:11:59.048Z,29.02
2022-08-30T14:13:08.944Z,29.02
2022-08-30T14:14:30.187Z,29.02
2022-08-30T14:15:13.482Z,29.03
2022-08-30T14:17:50.656Z,29.01
2022-08-30T14:18:53.284Z,29.01
2022-08-30T14:19:58.026Z,29.02
2022-08-30T14:21:03.750Z,29.01
2022-08-30T14:22:08.877Z,29.01
2022-08-30T14:23:11.276Z,29.01
2022-08-30T14:24:13.856Z,29.01
2022-08-30T14:25:16.339Z,29.02
2022-08-30T14:26:22.751Z,29.02
2022-08-30T14:27:25.057Z,29.02
2022-08-30T14:28:29.156Z,29.02
2022-08-30T14:29:33.296Z,29.02
2022-08-30T14:30:37.564Z,29.02
2022-08-30T14:31:42.252Z,29.03
2022-08-30T14:32:44.758Z,29.04
2022-08-30T14:33:47.525Z,29.04
2022-08-30T14:34:50.175Z,29.03
2022-08-30T14:35:54.541Z,29.03